sensor_id;sensor_type;location;lat;lon;timestamp;P1;durP1;ratioP1;P2;durP2;ratioP2
9821;SDS011;4950;46.042;14.472;2023-02-21T00:02:28;22.75;;;14.95;;
9821;SDS011;4950;46.042;14.472;2023-02-21T00:05:13;20.45;;;13.43;;
9821;SDS011;4950;46.042;14.472;2023-02-21T00:07:57;23.75;;;13.63;;
9821;SDS011;4950;46.042;14.472;2023-02-21T00:10:41;21.48;;;14.10;;
9821;SDS011;4950;46.042;14.472;2023-02-21T00:13:25;22.25;;;14.23;;
9821;SDS011;4950;46.042;14.472;2023-02-21T00:16:16;19.27;;;12.27;;
9821;SDS011;4950;46.042;14.472;2023-02-21T00:19:00;24.20;;;14.02;;
9821;SDS011;4950;46.042;14.472;2023-02-21T00:21:45;22.40;;;12.93;;
9821;SDS011;4950;46.042;14.472;2023-02-21T00:24:29;18.88;;;13.35;;
9821;SDS011;4950;46.042;14.472;2023-02-21T00:27:13;22.73;;;14.60;;
9821;SDS011;4950;46.042;14.472;2023-02-21T00:29:57;23.20;;;14.02;;
9821;SDS011;4950;46.042;14.472;2023-02-21T00:32:42;23.80;;;14.27;;
9821;SDS011;4950;46.042;14.472;2023-02-21T00:35:26;19.60;;;12.80;;
9821;SDS011;4950;46.042;14.472;2023-02-21T00:38:10;25.30;;;14.80;;
9821;SDS011;4950;46.042;14.472;2023-02-21T00:40:55;23.70;;;14.35;;
9821;SDS011;4950;46.042;14.472;2023-02-21T00:43:39;21.90;;;13.93;;
9821;SDS011;4950;46.042;14.472;2023-02-21T00:46:23;22.30;;;15.38;;
9821;SDS011;4950;46.042;14.472;2023-02-21T00:49:09;23.15;;;14.07;;
9821;SDS011;4950;46.042;14.472;2023-02-21T00:51:53;23.77;;;15.73;;
9821;SDS011;4950;46.042;14.472;2023-02-21T00:54:37;21.25;;;13.27;;
9821;SDS011;4950;46.042;14.472;2023-02-21T00:57:21;24.77;;;15.18;;
9821;SDS011;4950;46.042;14.472;2023-02-21T01:00:06;22.08;;;13.57;;
9821;SDS011;4950;46.042;14.472;2023-02-21T01:02:52;26.17;;;15.45;;
9821;SDS011;4950;46.042;14.472;2023-02-21T01:05:37;27.67;;;15.88;;
9821;SDS011;4950;46.042;14.472;2023-02-21T01:08:21;25.65;;;16.00;;
9821;SDS011;4950;46.042;14.472;2023-02-21T01:11:05;26.58;;;15.90;;
9821;SDS011;4950;46.042;14.472;2023-02-21T01:13:49;26.98;;;16.00;;
9821;SDS011;4950;46.042;14.472;2023-02-21T01:16:33;25.98;;;15.82;;
9821;SDS011;4950;46.042;14.472;2023-02-21T01:19:17;25.05;;;15.40;;
9821;SDS011;4950;46.042;14.472;2023-02-21T01:22:03;23.60;;;15.60;;
9821;SDS011;4950;46.042;14.472;2023-02-21T01:24:47;25.52;;;16.52;;
9821;SDS011;4950;46.042;14.472;2023-02-21T01:27:32;27.23;;;16.77;;
9821;SDS011;4950;46.042;14.472;2023-02-21T01:30:16;31.48;;;16.70;;
9821;SDS011;4950;46.042;14.472;2023-02-21T01:33:00;27.80;;;17.40;;
9821;SDS011;4950;46.042;14.472;2023-02-21T01:35:44;30.92;;;19.10;;
9821;SDS011;4950;46.042;14.472;2023-02-21T01:38:29;31.58;;;19.13;;
9821;SDS011;4950;46.042;14.472;2023-02-21T01:41:15;29.67;;;19.15;;
9821;SDS011;4950;46.042;14.472;2023-02-21T01:44:00;29.30;;;18.60;;
9821;SDS011;4950;46.042;14.472;2023-02-21T01:46:46;32.38;;;19.35;;
9821;SDS011;4950;46.042;14.472;2023-02-21T01:49:30;40.08;;;20.02;;
9821;SDS011;4950;46.042;14.472;2023-02-21T01:52:15;31.70;;;19.33;;
9821;SDS011;4950;46.042;14.472;2023-02-21T01:55:01;30.70;;;20.05;;
9821;SDS011;4950;46.042;14.472;2023-02-21T01:57:48;31.40;;;19.50;;
9821;SDS011;4950;46.042;14.472;2023-02-21T02:00:33;34.22;;;20.38;;
9821;SDS011;4950;46.042;14.472;2023-02-21T02:03:18;32.97;;;20.75;;
9821;SDS011;4950;46.042;14.472;2023-02-21T02:06:03;33.60;;;21.13;;
9821;SDS011;4950;46.042;14.472;2023-02-21T02:08:51;34.55;;;21.92;;
9821;SDS011;4950;46.042;14.472;2023-02-21T02:17:55;38.08;;;22.80;;
9821;SDS011;4950;46.042;14.472;2023-02-21T02:20:44;39.70;;;23.13;;
9821;SDS011;4950;46.042;14.472;2023-02-21T02:26:11;39.47;;;23.63;;
9821;SDS011;4950;46.042;14.472;2023-02-21T02:29:11;46.00;;;25.25;;
9821;SDS011;4950;46.042;14.472;2023-02-21T02:32:17;42.20;;;24.42;;
9821;SDS011;4950;46.042;14.472;2023-02-21T02:35:12;47.17;;;27.13;;
9821;SDS011;4950;46.042;14.472;2023-02-21T02:37:46;45.17;;;26.33;;
9821;SDS011;4950;46.042;14.472;2023-02-21T02:40:18;49.47;;;26.35;;
9821;SDS011;4950;46.042;14.472;2023-02-21T02:42:54;53.38;;;28.65;;
9821;SDS011;4950;46.042;14.472;2023-02-21T02:45:29;47.60;;;27.10;;
9821;SDS011;4950;46.042;14.472;2023-02-21T02:48:04;51.03;;;29.35;;
9821;SDS011;4950;46.042;14.472;2023-02-21T02:50:40;54.35;;;29.30;;
9821;SDS011;4950;46.042;14.472;2023-02-21T02:53:11;50.70;;;28.60;;
9821;SDS011;4950;46.042;14.472;2023-02-21T02:55:39;52.58;;;29.45;;
9821;SDS011;4950;46.042;14.472;2023-02-21T02:58:08;52.65;;;30.50;;
9821;SDS011;4950;46.042;14.472;2023-02-21T03:00:37;55.08;;;31.60;;
9821;SDS011;4950;46.042;14.472;2023-02-21T03:03:17;54.92;;;32.42;;
9821;SDS011;4950;46.042;14.472;2023-02-21T03:06:10;59.75;;;32.50;;
9821;SDS011;4950;46.042;14.472;2023-02-21T03:08:49;60.60;;;33.30;;
9821;SDS011;4950;46.042;14.472;2023-02-21T03:11:21;57.25;;;32.20;;
9821;SDS011;4950;46.042;14.472;2023-02-21T03:13:52;58.15;;;33.45;;
9821;SDS011;4950;46.042;14.472;2023-02-21T03:16:22;62.22;;;33.85;;
9821;SDS011;4950;46.042;14.472;2023-02-21T03:18:53;65.60;;;33.45;;
9821;SDS011;4950;46.042;14.472;2023-02-21T03:21:25;64.55;;;34.55;;
9821;SDS011;4950;46.042;14.472;2023-02-21T03:23:55;64.95;;;35.58;;
9821;SDS011;4950;46.042;14.472;2023-02-21T03:26:25;59.47;;;32.13;;
9821;SDS011;4950;46.042;14.472;2023-02-21T03:31:23;68.90;;;34.72;;
9821;SDS011;4950;46.042;14.472;2023-02-21T03:33:55;63.88;;;35.45;;
9821;SDS011;4950;46.042;14.472;2023-02-21T03:36:21;68.35;;;35.28;;
9821;SDS011;4950;46.042;14.472;2023-02-21T03:38:50;67.60;;;34.03;;
9821;SDS011;4950;46.042;14.472;2023-02-21T03:41:17;69.43;;;36.78;;
9821;SDS011;4950;46.042;14.472;2023-02-21T03:43:44;72.35;;;36.88;;
9821;SDS011;4950;46.042;14.472;2023-02-21T03:46:10;72.32;;;38.65;;
9821;SDS011;4950;46.042;14.472;2023-02-21T03:48:38;70.30;;;36.35;;
9821;SDS011;4950;46.042;14.472;2023-02-21T03:51:04;69.45;;;37.17;;
9821;SDS011;4950;46.042;14.472;2023-02-21T03:53:31;78.43;;;37.75;;
9821;SDS011;4950;46.042;14.472;2023-02-21T03:55:59;71.38;;;38.65;;
9821;SDS011;4950;46.042;14.472;2023-02-21T03:58:26;73.85;;;36.95;;
9821;SDS011;4950;46.042;14.472;2023-02-21T04:00:52;77.82;;;39.83;;
9821;SDS011;4950;46.042;14.472;2023-02-21T04:03:19;75.25;;;40.00;;
9821;SDS011;4950;46.042;14.472;2023-02-21T04:05:46;68.65;;;37.28;;
9821;SDS011;4950;46.042;14.472;2023-02-21T04:08:13;69.00;;;37.97;;
9821;SDS011;4950;46.042;14.472;2023-02-21T04:10:40;70.80;;;38.38;;
9821;SDS011;4950;46.042;14.472;2023-02-21T04:13:08;74.60;;;38.85;;
9821;SDS011;4950;46.042;14.472;2023-02-21T04:15:34;77.43;;;39.63;;
9821;SDS011;4950;46.042;14.472;2023-02-21T04:18:01;74.38;;;39.70;;
9821;SDS011;4950;46.042;14.472;2023-02-21T04:20:28;73.97;;;37.72;;
9821;SDS011;4950;46.042;14.472;2023-02-21T04:22:54;75.88;;;38.55;;
9821;SDS011;4950;46.042;14.472;2023-02-21T04:25:21;77.70;;;38.78;;
9821;SDS011;4950;46.042;14.472;2023-02-21T04:27:48;75.13;;;39.47;;
9821;SDS011;4950;46.042;14.472;2023-02-21T04:30:16;76.00;;;39.13;;
9821;SDS011;4950;46.042;14.472;2023-02-21T04:32:43;73.53;;;39.45;;
9821;SDS011;4950;46.042;14.472;2023-02-21T04:35:10;82.32;;;42.38;;
9821;SDS011;4950;46.042;14.472;2023-02-21T04:37:36;77.07;;;38.72;;
9821;SDS011;4950;46.042;14.472;2023-02-21T04:40:03;76.55;;;40.85;;
9821;SDS011;4950;46.042;14.472;2023-02-21T04:42:31;81.70;;;41.78;;
9821;SDS011;4950;46.042;14.472;2023-02-21T04:44:57;80.65;;;40.75;;
9821;SDS011;4950;46.042;14.472;2023-02-21T04:47:25;77.60;;;41.03;;
9821;SDS011;4950;46.042;14.472;2023-02-21T04:49:52;80.00;;;41.17;;
9821;SDS011;4950;46.042;14.472;2023-02-21T04:52:19;80.13;;;40.95;;
9821;SDS011;4950;46.042;14.472;2023-02-21T04:54:45;78.93;;;40.05;;
9821;SDS011;4950;46.042;14.472;2023-02-21T04:57:12;73.57;;;39.75;;
9821;SDS011;4950;46.042;14.472;2023-02-21T04:59:39;82.05;;;42.45;;
9821;SDS011;4950;46.042;14.472;2023-02-21T05:02:06;90.80;;;41.63;;
9821;SDS011;4950;46.042;14.472;2023-02-21T05:04:35;77.22;;;40.28;;
9821;SDS011;4950;46.042;14.472;2023-02-21T05:07:02;82.63;;;42.00;;
9821;SDS011;4950;46.042;14.472;2023-02-21T05:09:29;78.93;;;41.05;;
9821;SDS011;4950;46.042;14.472;2023-02-21T05:11:57;81.80;;;40.08;;
9821;SDS011;4950;46.042;14.472;2023-02-21T05:14:23;87.60;;;42.67;;
9821;SDS011;4950;46.042;14.472;2023-02-21T05:16:50;81.47;;;38.85;;
9821;SDS011;4950;46.042;14.472;2023-02-21T05:19:17;78.13;;;40.35;;
9821;SDS011;4950;46.042;14.472;2023-02-21T05:21:54;80.10;;;40.67;;
9821;SDS011;4950;46.042;14.472;2023-02-21T05:24:22;80.90;;;41.35;;
9821;SDS011;4950;46.042;14.472;2023-02-21T05:26:48;81.97;;;41.25;;
9821;SDS011;4950;46.042;14.472;2023-02-21T05:29:16;79.35;;;39.25;;
9821;SDS011;4950;46.042;14.472;2023-02-21T05:31:43;82.53;;;40.78;;
9821;SDS011;4950;46.042;14.472;2023-02-21T05:34:10;77.93;;;39.58;;
9821;SDS011;4950;46.042;14.472;2023-02-21T05:36:37;79.55;;;41.30;;
9821;SDS011;4950;46.042;14.472;2023-02-21T05:39:06;83.60;;;41.63;;
9821;SDS011;4950;46.042;14.472;2023-02-21T05:41:34;77.15;;;38.38;;
9821;SDS011;4950;46.042;14.472;2023-02-21T05:44:01;79.68;;;40.28;;
9821;SDS011;4950;46.042;14.472;2023-02-21T05:46:30;77.50;;;38.47;;
9821;SDS011;4950;46.042;14.472;2023-02-21T05:48:58;78.20;;;39.95;;
9821;SDS011;4950;46.042;14.472;2023-02-21T05:51:26;74.45;;;39.45;;
9821;SDS011;4950;46.042;14.472;2023-02-21T05:53:53;78.05;;;39.70;;
9821;SDS011;4950;46.042;14.472;2023-02-21T05:56:21;80.45;;;39.83;;
9821;SDS011;4950;46.042;14.472;2023-02-21T05:58:48;70.93;;;38.42;;
9821;SDS011;4950;46.042;14.472;2023-02-21T06:01:15;79.50;;;39.58;;
9821;SDS011;4950;46.042;14.472;2023-02-21T06:03:41;78.07;;;40.05;;
9821;SDS011;4950;46.042;14.472;2023-02-21T06:06:08;74.15;;;36.90;;
9821;SDS011;4950;46.042;14.472;2023-02-21T06:08:42;81.72;;;41.00;;
9821;SDS011;4950;46.042;14.472;2023-02-21T06:11:09;75.18;;;38.92;;
9821;SDS011;4950;46.042;14.472;2023-02-21T06:13:37;77.07;;;39.08;;
9821;SDS011;4950;46.042;14.472;2023-02-21T06:16:04;79.47;;;41.03;;
9821;SDS011;4950;46.042;14.472;2023-02-21T06:18:31;81.03;;;40.10;;
9821;SDS011;4950;46.042;14.472;2023-02-21T06:20:58;75.25;;;39.25;;
9821;SDS011;4950;46.042;14.472;2023-02-21T06:23:25;76.93;;;40.58;;
9821;SDS011;4950;46.042;14.472;2023-02-21T06:25:52;81.40;;;40.83;;
9821;SDS011;4950;46.042;14.472;2023-02-21T06:28:18;75.05;;;38.53;;
9821;SDS011;4950;46.042;14.472;2023-02-21T06:30:46;78.03;;;39.15;;
9821;SDS011;4950;46.042;14.472;2023-02-21T06:33:13;80.35;;;39.97;;
9821;SDS011;4950;46.042;14.472;2023-02-21T06:35:40;75.57;;;38.42;;
9821;SDS011;4950;46.042;14.472;2023-02-21T06:38:06;72.82;;;37.42;;
9821;SDS011;4950;46.042;14.472;2023-02-21T06:40:33;75.97;;;38.65;;
9821;SDS011;4950;46.042;14.472;2023-02-21T06:43:00;72.90;;;37.17;;
9821;SDS011;4950;46.042;14.472;2023-02-21T06:45:26;71.35;;;36.03;;
9821;SDS011;4950;46.042;14.472;2023-02-21T06:47:54;68.88;;;36.88;;
9821;SDS011;4950;46.042;14.472;2023-02-21T06:50:21;73.30;;;38.53;;
9821;SDS011;4950;46.042;14.472;2023-02-21T06:52:48;72.15;;;37.28;;
9821;SDS011;4950;46.042;14.472;2023-02-21T06:55:18;71.40;;;38.50;;
9821;SDS011;4950;46.042;14.472;2023-02-21T06:57:45;73.20;;;37.50;;
9821;SDS011;4950;46.042;14.472;2023-02-21T07:00:12;70.50;;;37.33;;
9821;SDS011;4950;46.042;14.472;2023-02-21T07:02:40;78.72;;;39.17;;
9821;SDS011;4950;46.042;14.472;2023-02-21T07:05:08;69.93;;;36.67;;
9821;SDS011;4950;46.042;14.472;2023-02-21T07:07:36;68.97;;;36.92;;
9821;SDS011;4950;46.042;14.472;2023-02-21T07:10:03;69.53;;;36.28;;
9821;SDS011;4950;46.042;14.472;2023-02-21T07:12:30;70.70;;;37.45;;
9821;SDS011;4950;46.042;14.472;2023-02-21T07:14:57;70.07;;;36.05;;
9821;SDS011;4950;46.042;14.472;2023-02-21T07:17:23;72.90;;;35.55;;
9821;SDS011;4950;46.042;14.472;2023-02-21T07:19:50;70.32;;;37.38;;
9821;SDS011;4950;46.042;14.472;2023-02-21T07:22:18;67.85;;;37.63;;
9821;SDS011;4950;46.042;14.472;2023-02-21T07:24:50;67.55;;;35.35;;
9821;SDS011;4950;46.042;14.472;2023-02-21T07:27:17;69.05;;;35.80;;
9821;SDS011;4950;46.042;14.472;2023-02-21T07:29:45;63.75;;;34.75;;
9821;SDS011;4950;46.042;14.472;2023-02-21T07:32:11;65.38;;;35.38;;
9821;SDS011;4950;46.042;14.472;2023-02-21T07:37:07;65.95;;;35.20;;
9821;SDS011;4950;46.042;14.472;2023-02-21T07:39:36;64.00;;;34.47;;
9821;SDS011;4950;46.042;14.472;2023-02-21T07:42:03;75.10;;;37.38;;
9821;SDS011;4950;46.042;14.472;2023-02-21T07:44:32;66.68;;;34.25;;
9821;SDS011;4950;46.042;14.472;2023-02-21T07:46:59;62.35;;;33.95;;
9821;SDS011;4950;46.042;14.472;2023-02-21T07:49:26;69.57;;;35.42;;
9821;SDS011;4950;46.042;14.472;2023-02-21T07:51:52;68.20;;;36.55;;
9821;SDS011;4950;46.042;14.472;2023-02-21T07:54:19;61.83;;;33.60;;
9821;SDS011;4950;46.042;14.472;2023-02-21T07:56:48;66.53;;;34.80;;
9821;SDS011;4950;46.042;14.472;2023-02-21T07:59:16;64.20;;;33.75;;
9821;SDS011;4950;46.042;14.472;2023-02-21T08:01:43;59.65;;;33.53;;
9821;SDS011;4950;46.042;14.472;2023-02-21T08:04:09;66.22;;;35.40;;
9821;SDS011;4950;46.042;14.472;2023-02-21T08:06:37;66.47;;;33.50;;
9821;SDS011;4950;46.042;14.472;2023-02-21T08:09:04;64.97;;;35.47;;
9821;SDS011;4950;46.042;14.472;2023-02-21T08:11:31;64.57;;;35.42;;
9821;SDS011;4950;46.042;14.472;2023-02-21T08:13:59;65.05;;;34.72;;
9821;SDS011;4950;46.042;14.472;2023-02-21T08:16:26;68.32;;;35.58;;
9821;SDS011;4950;46.042;14.472;2023-02-21T08:18:52;66.60;;;35.65;;
9821;SDS011;4950;46.042;14.472;2023-02-21T08:21:19;66.80;;;35.08;;
9821;SDS011;4950;46.042;14.472;2023-02-21T08:23:46;62.17;;;34.97;;
9821;SDS011;4950;46.042;14.472;2023-02-21T08:26:12;81.57;;;40.78;;
9821;SDS011;4950;46.042;14.472;2023-02-21T08:28:39;69.88;;;36.53;;
9821;SDS011;4950;46.042;14.472;2023-02-21T08:31:07;67.60;;;35.22;;
9821;SDS011;4950;46.042;14.472;2023-02-21T08:33:34;67.25;;;35.53;;
9821;SDS011;4950;46.042;14.472;2023-02-21T08:36:01;68.40;;;36.92;;
9821;SDS011;4950;46.042;14.472;2023-02-21T08:38:27;70.10;;;38.55;;
9821;SDS011;4950;46.042;14.472;2023-02-21T08:40:54;62.70;;;34.20;;
9821;SDS011;4950;46.042;14.472;2023-02-21T08:43:21;68.75;;;36.67;;
9821;SDS011;4950;46.042;14.472;2023-02-21T08:45:48;69.82;;;36.38;;
9821;SDS011;4950;46.042;14.472;2023-02-21T08:48:16;67.22;;;37.15;;
9821;SDS011;4950;46.042;14.472;2023-02-21T08:50:43;68.25;;;36.25;;
9821;SDS011;4950;46.042;14.472;2023-02-21T08:53:10;65.43;;;36.38;;
9821;SDS011;4950;46.042;14.472;2023-02-21T08:55:38;66.80;;;36.35;;
9821;SDS011;4950;46.042;14.472;2023-02-21T08:58:04;65.57;;;35.13;;
9821;SDS011;4950;46.042;14.472;2023-02-21T09:00:31;68.32;;;36.47;;
9821;SDS011;4950;46.042;14.472;2023-02-21T09:02:58;66.32;;;36.25;;
9821;SDS011;4950;46.042;14.472;2023-02-21T09:05:27;67.25;;;35.47;;
9821;SDS011;4950;46.042;14.472;2023-02-21T09:07:55;71.15;;;37.25;;
9821;SDS011;4950;46.042;14.472;2023-02-21T09:10:25;70.82;;;37.13;;
9821;SDS011;4950;46.042;14.472;2023-02-21T09:12:54;64.67;;;35.47;;
9821;SDS011;4950;46.042;14.472;2023-02-21T09:15:21;68.55;;;36.40;;
9821;SDS011;4950;46.042;14.472;2023-02-21T09:17:47;72.07;;;37.60;;
9821;SDS011;4950;46.042;14.472;2023-02-21T09:20:15;66.55;;;36.55;;
9821;SDS011;4950;46.042;14.472;2023-02-21T09:22:47;64.18;;;35.63;;
9821;SDS011;4950;46.042;14.472;2023-02-21T09:25:15;62.88;;;35.92;;
9821;SDS011;4950;46.042;14.472;2023-02-21T09:27:44;65.05;;;35.85;;
9821;SDS011;4950;46.042;14.472;2023-02-21T09:30:11;65.53;;;34.13;;
9821;SDS011;4950;46.042;14.472;2023-02-21T09:32:40;62.67;;;35.25;;
9821;SDS011;4950;46.042;14.472;2023-02-21T09:35:07;66.70;;;35.90;;
9821;SDS011;4950;46.042;14.472;2023-02-21T09:37:36;63.22;;;34.38;;
9821;SDS011;4950;46.042;14.472;2023-02-21T09:40:05;71.63;;;36.47;;
9821;SDS011;4950;46.042;14.472;2023-02-21T09:42:37;65.13;;;34.65;;
9821;SDS011;4950;46.042;14.472;2023-02-21T09:45:05;61.88;;;32.58;;
9821;SDS011;4950;46.042;14.472;2023-02-21T09:47:35;63.92;;;34.85;;
9821;SDS011;4950;46.042;14.472;2023-02-21T09:50:05;65.55;;;34.13;;
9821;SDS011;4950;46.042;14.472;2023-02-21T09:52:36;59.65;;;33.33;;
9821;SDS011;4950;46.042;14.472;2023-02-21T09:55:10;61.00;;;34.47;;
9821;SDS011;4950;46.042;14.472;2023-02-21T09:57:46;61.35;;;32.92;;
9821;SDS011;4950;46.042;14.472;2023-02-21T10:00:16;63.75;;;35.28;;
9821;SDS011;4950;46.042;14.472;2023-02-21T10:02:48;63.25;;;33.90;;
9821;SDS011;4950;46.042;14.472;2023-02-21T10:05:26;62.38;;;33.22;;
9821;SDS011;4950;46.042;14.472;2023-02-21T10:08:00;61.40;;;33.97;;
9821;SDS011;4950;46.042;14.472;2023-02-21T10:10:38;61.55;;;35.22;;
9821;SDS011;4950;46.042;14.472;2023-02-21T10:13:13;58.50;;;34.58;;
9821;SDS011;4950;46.042;14.472;2023-02-21T10:15:51;63.95;;;35.88;;
9821;SDS011;4950;46.042;14.472;2023-02-21T10:18:26;58.13;;;33.97;;
9821;SDS011;4950;46.042;14.472;2023-02-21T10:20:59;62.00;;;34.33;;
9821;SDS011;4950;46.042;14.472;2023-02-21T10:23:33;61.08;;;34.25;;
9821;SDS011;4950;46.042;14.472;2023-02-21T10:26:06;60.80;;;34.45;;
9821;SDS011;4950;46.042;14.472;2023-02-21T10:28:35;65.45;;;34.42;;
9821;SDS011;4950;46.042;14.472;2023-02-21T10:31:05;59.13;;;33.22;;
9821;SDS011;4950;46.042;14.472;2023-02-21T10:33:36;60.78;;;33.50;;
9821;SDS011;4950;46.042;14.472;2023-02-21T10:36:09;61.40;;;33.83;;
9821;SDS011;4950;46.042;14.472;2023-02-21T10:38:37;70.40;;;34.40;;
9821;SDS011;4950;46.042;14.472;2023-02-21T10:41:08;60.10;;;33.60;;
9821;SDS011;4950;46.042;14.472;2023-02-21T10:43:38;59.70;;;32.97;;
9821;SDS011;4950;46.042;14.472;2023-02-21T10:46:10;57.95;;;32.13;;
9821;SDS011;4950;46.042;14.472;2023-02-21T10:48:43;57.85;;;31.60;;
9821;SDS011;4950;46.042;14.472;2023-02-21T10:51:13;57.38;;;33.28;;
9821;SDS011;4950;46.042;14.472;2023-02-21T10:53:42;60.03;;;34.20;;
9821;SDS011;4950;46.042;14.472;2023-02-21T10:56:21;57.13;;;33.67;;
9821;SDS011;4950;46.042;14.472;2023-02-21T10:58:54;58.22;;;32.85;;
9821;SDS011;4950;46.042;14.472;2023-02-21T11:01:29;54.55;;;31.50;;
9821;SDS011;4950;46.042;14.472;2023-02-21T11:04:00;66.03;;;33.42;;
9821;SDS011;4950;46.042;14.472;2023-02-21T11:11:34;56.55;;;32.92;;
9821;SDS011;4950;46.042;14.472;2023-02-21T11:14:06;59.95;;;33.65;;
9821;SDS011;4950;46.042;14.472;2023-02-21T11:16:49;57.85;;;31.75;;
9821;SDS011;4950;46.042;14.472;2023-02-21T11:19:53;55.40;;;32.40;;
9821;SDS011;4950;46.042;14.472;2023-02-21T11:22:21;56.78;;;32.67;;
9821;SDS011;4950;46.042;14.472;2023-02-21T11:24:56;55.30;;;31.40;;
9821;SDS011;4950;46.042;14.472;2023-02-21T11:27:28;53.33;;;32.20;;
9821;SDS011;4950;46.042;14.472;2023-02-21T11:29:57;53.25;;;31.55;;
9821;SDS011;4950;46.042;14.472;2023-02-21T11:32:27;57.60;;;31.80;;
9821;SDS011;4950;46.042;14.472;2023-02-21T11:35:03;61.00;;;33.08;;
9821;SDS011;4950;46.042;14.472;2023-02-21T11:37:33;56.60;;;32.53;;
9821;SDS011;4950;46.042;14.472;2023-02-21T11:40:20;52.80;;;32.55;;
9821;SDS011;4950;46.042;14.472;2023-02-21T11:43:05;53.90;;;31.63;;
9821;SDS011;4950;46.042;14.472;2023-02-21T11:45:35;56.90;;;32.42;;
9821;SDS011;4950;46.042;14.472;2023-02-21T11:48:09;53.50;;;33.22;;
9821;SDS011;4950;46.042;14.472;2023-02-21T11:50:39;56.92;;;31.13;;
9821;SDS011;4950;46.042;14.472;2023-02-21T11:53:13;51.72;;;30.98;;
9821;SDS011;4950;46.042;14.472;2023-02-21T11:55:48;58.13;;;33.88;;
9821;SDS011;4950;46.042;14.472;2023-02-21T11:58:24;60.28;;;32.58;;
9821;SDS011;4950;46.042;14.472;2023-02-21T12:00:58;60.45;;;33.22;;
9821;SDS011;4950;46.042;14.472;2023-02-21T12:03:45;60.13;;;32.30;;
9821;SDS011;4950;46.042;14.472;2023-02-21T12:06:31;58.05;;;33.47;;
9821;SDS011;4950;46.042;14.472;2023-02-21T12:09:09;59.22;;;34.58;;
9821;SDS011;4950;46.042;14.472;2023-02-21T12:11:49;56.45;;;33.90;;
9821;SDS011;4950;46.042;14.472;2023-02-21T12:14:27;60.35;;;34.50;;
9821;SDS011;4950;46.042;14.472;2023-02-21T12:17:10;57.25;;;33.22;;
9821;SDS011;4950;46.042;14.472;2023-02-21T12:19:54;60.03;;;33.83;;
9821;SDS011;4950;46.042;14.472;2023-02-21T12:22:37;57.28;;;31.50;;
9821;SDS011;4950;46.042;14.472;2023-02-21T12:25:15;53.45;;;31.33;;
9821;SDS011;4950;46.042;14.472;2023-02-21T12:27:49;53.28;;;30.90;;
9821;SDS011;4950;46.042;14.472;2023-02-21T12:30:26;53.10;;;33.35;;
9821;SDS011;4950;46.042;14.472;2023-02-21T12:33:08;52.63;;;30.67;;
9821;SDS011;4950;46.042;14.472;2023-02-21T12:38:41;54.28;;;30.65;;
9821;SDS011;4950;46.042;14.472;2023-02-21T12:41:23;55.47;;;30.40;;
9821;SDS011;4950;46.042;14.472;2023-02-21T12:44:00;54.17;;;31.55;;
9821;SDS011;4950;46.042;14.472;2023-02-21T12:46:39;54.75;;;31.42;;
9821;SDS011;4950;46.042;14.472;2023-02-21T12:49:13;56.17;;;32.95;;
9821;SDS011;4950;46.042;14.472;2023-02-21T12:51:43;56.83;;;34.72;;
9821;SDS011;4950;46.042;14.472;2023-02-21T12:56:43;57.58;;;31.58;;
9821;SDS011;4950;46.042;14.472;2023-02-21T12:59:17;58.90;;;34.83;;
9821;SDS011;4950;46.042;14.472;2023-02-21T13:01:54;54.67;;;33.72;;
9821;SDS011;4950;46.042;14.472;2023-02-21T13:04:27;56.50;;;34.40;;
9821;SDS011;4950;46.042;14.472;2023-02-21T13:07:03;59.17;;;33.60;;
9821;SDS011;4950;46.042;14.472;2023-02-21T13:09:50;61.13;;;36.47;;
9821;SDS011;4950;46.042;14.472;2023-02-21T13:12:24;61.78;;;35.60;;
9821;SDS011;4950;46.042;14.472;2023-02-21T13:14:57;61.28;;;36.85;;
9821;SDS011;4950;46.042;14.472;2023-02-21T13:17:29;60.13;;;35.40;;
9821;SDS011;4950;46.042;14.472;2023-02-21T13:19:58;63.53;;;36.80;;
9821;SDS011;4950;46.042;14.472;2023-02-21T13:25:36;67.35;;;35.55;;
9821;SDS011;4950;46.042;14.472;2023-02-21T13:28:17;65.57;;;35.35;;
9821;SDS011;4950;46.042;14.472;2023-02-21T13:30:49;61.35;;;37.00;;
9821;SDS011;4950;46.042;14.472;2023-02-21T13:33:25;61.88;;;34.13;;
9821;SDS011;4950;46.042;14.472;2023-02-21T13:35:55;57.30;;;34.35;;
9821;SDS011;4950;46.042;14.472;2023-02-21T13:40:52;63.45;;;36.05;;
9821;SDS011;4950;46.042;14.472;2023-02-21T13:43:27;64.60;;;33.95;;
9821;SDS011;4950;46.042;14.472;2023-02-21T13:45:59;61.30;;;36.10;;
9821;SDS011;4950;46.042;14.472;2023-02-21T13:51:52;64.50;;;36.80;;
9821;SDS011;4950;46.042;14.472;2023-02-21T13:57:39;62.28;;;36.95;;
9821;SDS011;4950;46.042;14.472;2023-02-21T14:06:23;64.05;;;35.65;;
9821;SDS011;4950;46.042;14.472;2023-02-21T14:08:57;66.43;;;36.20;;
9821;SDS011;4950;46.042;14.472;2023-02-21T14:11:27;67.32;;;36.58;;
9821;SDS011;4950;46.042;14.472;2023-02-21T14:13:56;69.07;;;38.20;;
9821;SDS011;4950;46.042;14.472;2023-02-21T14:16:27;64.65;;;36.55;;
9821;SDS011;4950;46.042;14.472;2023-02-21T14:18:58;62.00;;;37.00;;
9821;SDS011;4950;46.042;14.472;2023-02-21T14:21:32;65.95;;;37.20;;
9821;SDS011;4950;46.042;14.472;2023-02-21T14:24:03;63.15;;;36.38;;
9821;SDS011;4950;46.042;14.472;2023-02-21T14:26:38;63.70;;;37.53;;
9821;SDS011;4950;46.042;14.472;2023-02-21T14:29:09;59.55;;;35.22;;
9821;SDS011;4950;46.042;14.472;2023-02-21T14:31:49;65.80;;;36.58;;
9821;SDS011;4950;46.042;14.472;2023-02-21T14:34:20;64.90;;;37.25;;
9821;SDS011;4950;46.042;14.472;2023-02-21T14:36:51;60.60;;;35.97;;
9821;SDS011;4950;46.042;14.472;2023-02-21T14:39:23;69.03;;;36.08;;
9821;SDS011;4950;46.042;14.472;2023-02-21T14:42:02;69.35;;;37.47;;
9821;SDS011;4950;46.042;14.472;2023-02-21T14:44:48;61.30;;;36.13;;
9821;SDS011;4950;46.042;14.472;2023-02-21T14:47:39;67.07;;;37.83;;
9821;SDS011;4950;46.042;14.472;2023-02-21T14:50:28;68.07;;;36.38;;
9821;SDS011;4950;46.042;14.472;2023-02-21T14:53:05;66.30;;;37.33;;
9821;SDS011;4950;46.042;14.472;2023-02-21T14:56:06;63.58;;;35.28;;
9821;SDS011;4950;46.042;14.472;2023-02-21T14:59:07;64.20;;;36.08;;
9821;SDS011;4950;46.042;14.472;2023-02-21T15:01:54;65.43;;;35.25;;
9821;SDS011;4950;46.042;14.472;2023-02-21T15:04:30;69.15;;;37.38;;
9821;SDS011;4950;46.042;14.472;2023-02-21T15:07:07;65.18;;;38.10;;
9821;SDS011;4950;46.042;14.472;2023-02-21T15:09:40;63.77;;;36.67;;
9821;SDS011;4950;46.042;14.472;2023-02-21T15:12:09;63.95;;;35.25;;
9821;SDS011;4950;46.042;14.472;2023-02-21T15:14:45;69.93;;;38.15;;
9821;SDS011;4950;46.042;14.472;2023-02-21T15:17:16;67.10;;;37.58;;
9821;SDS011;4950;46.042;14.472;2023-02-21T15:19:45;69.97;;;36.25;;
9821;SDS011;4950;46.042;14.472;2023-02-21T15:22:16;73.38;;;37.90;;
9821;SDS011;4950;46.042;14.472;2023-02-21T15:24:57;71.97;;;37.25;;
9821;SDS011;4950;46.042;14.472;2023-02-21T15:27:26;71.50;;;35.65;;
9821;SDS011;4950;46.042;14.472;2023-02-21T15:30:02;74.53;;;38.20;;
9821;SDS011;4950;46.042;14.472;2023-02-21T15:32:31;69.95;;;37.30;;
9821;SDS011;4950;46.042;14.472;2023-02-21T15:34:59;77.47;;;39.33;;
9821;SDS011;4950;46.042;14.472;2023-02-21T15:37:29;72.65;;;36.38;;
9821;SDS011;4950;46.042;14.472;2023-02-21T15:39:59;72.95;;;37.42;;
9821;SDS011;4950;46.042;14.472;2023-02-21T15:42:37;70.03;;;36.70;;
9821;SDS011;4950;46.042;14.472;2023-02-21T15:45:06;75.82;;;39.30;;
9821;SDS011;4950;46.042;14.472;2023-02-21T15:47:36;73.88;;;38.33;;
9821;SDS011;4950;46.042;14.472;2023-02-21T15:50:04;72.45;;;38.35;;
9821;SDS011;4950;46.042;14.472;2023-02-21T15:52:34;74.50;;;38.63;;